createdAt,value
2023-11-12T00:00:24.225Z,100122.69
2023-11-12T00:02:52.073Z,100118.66
2023-11-12T00:05:20.933Z,100113.03
2023-11-12T00:07:49.005Z,100122.69
2023-11-12T00:10:17.795Z,100115.03
2023-11-12T00:12:45.808Z,100128.31
2023-11-12T00:15:15.085Z,100115.84
2023-11-12T00:17:43.756Z,100119.88
2023-11-12T00:20:14.162Z,100118.66
2023-11-12T00:22:44.913Z,100113.03
2023-11-12T00:25:13.812Z,100117.84
2023-11-12T00:27:41.931Z,100119.47
2023-11-12T00:30:10.321Z,100111.41
2023-11-12T00:32:39.728Z,100125.91
2023-11-12T00:35:08.059Z,100123.09
2023-11-12T00:37:35.940Z,100117.84
2023-11-12T00:40:04.288Z,100123.09
2023-11-12T00:42:32.139Z,100127.50
2023-11-12T00:45:00.334Z,100123.47
2023-11-12T00:47:28.297Z,100130.34
2023-11-12T00:49:57.934Z,100123.91
2023-11-12T00:52:26.366Z,100128.31
2023-11-12T00:54:54.260Z,100134.38
2023-11-12T00:57:22.082Z,100126.31
2023-11-12T00:59:50.168Z,100127.94
2023-11-12T01:02:19.137Z,100128.31
2023-11-12T01:04:47.585Z,100129.91
2023-11-12T01:07:17.133Z,100145.22
2023-11-12T01:09:47.488Z,100135.97
2023-11-12T01:12:15.636Z,100140.00
2023-11-12T01:14:44.087Z,100145.22
2023-11-12T01:17:12.021Z,100142.81
2023-11-12T01:19:40.525Z,100148.44
2023-11-12T01:22:08.967Z,100147.22
2023-11-12T01:24:39.002Z,100149.63
2023-11-12T01:27:07.115Z,100145.63
2023-11-12T01:29:34.977Z,100150.84
2023-11-12T01:32:02.847Z,100154.84
2023-11-12T01:34:30.784Z,100157.28
2023-11-12T01:36:58.649Z,100156.84
2023-11-12T01:39:26.501Z,100146.00
2023-11-12T01:41:55.924Z,100151.63
2023-11-12T01:44:23.865Z,100140.38
2023-11-12T01:46:52.731Z,100142.81
2023-11-12T01:49:22.394Z,100146.81
2023-11-12T01:51:51.461Z,100136.34
2023-11-12T01:54:19.643Z,100141.56
2023-11-12T01:56:47.737Z,100140.75
2023-11-12T01:59:17.005Z,100144.00
2023-11-12T02:01:45.302Z,100136.34
2023-11-12T02:04:14.473Z,100146.00
2023-11-12T02:06:43.155Z,100143.19
2023-11-12T02:09:11.506Z,100139.56
2023-11-12T02:11:40.065Z,100134.75
2023-11-12T02:14:08.570Z,100134.75
2023-11-12T02:16:38.017Z,100126.69
2023-11-12T02:19:05.964Z,100125.09
2023-11-12T02:21:34.468Z,100136.34
2023-11-12T02:24:03.755Z,100142.78
2023-11-12T02:26:31.788Z,100129.91
2023-11-12T02:28:59.847Z,100137.19
2023-11-12T02:31:27.893Z,100136.38
2023-11-12T02:33:56.793Z,100135.13
2023-11-12T02:36:26.883Z,100130.72
2023-11-12T02:38:55.091Z,100130.72
2023-11-12T02:41:24.351Z,100134.75
2023-11-12T02:43:53.491Z,100132.34
2023-11-12T02:46:25.128Z,100144.41
2023-11-12T02:49:03.780Z,100138.78
2023-11-12T02:51:31.818Z,100146.81
2023-11-12T02:53:59.696Z,100136.38
2023-11-12T02:56:28.982Z,100135.53
2023-11-12T02:58:56.838Z,100134.75
2023-11-12T03:01:27.325Z,100134.75
2023-11-12T03:03:55.918Z,100129.13
2023-11-12T03:06:24.359Z,100133.16
2023-11-12T03:08:52.274Z,100137.56
2023-11-12T03:11:20.306Z,100136.34
2023-11-12T03:13:49.766Z,100134.75
2023-11-12T03:16:17.790Z,100138.78
2023-11-12T03:18:47.834Z,100136.75
2023-11-12T03:21:15.974Z,100143.59
2023-11-12T03:23:43.901Z,100147.59
2023-11-12T03:26:12.539Z,100145.22
2023-11-12T03:28:40.470Z,100143.56
2023-11-12T03:31:09.811Z,100143.56
2023-11-12T03:33:37.794Z,100149.22
2023-11-12T03:36:06.048Z,100144.00
2023-11-12T03:38:34.016Z,100142.78
2023-11-12T03:41:02.161Z,100143.56
2023-11-12T03:43:30.141Z,100141.97
2023-11-12T03:45:57.982Z,100145.22
2023-11-12T03:48:27.270Z,100145.59
2023-11-12T03:50:55.160Z,100149.22
2023-11-12T03:53:23.181Z,100153.25
2023-11-12T03:55:51.152Z,100154.47
2023-11-12T03:58:20.756Z,100149.22
2023-11-12T04:00:50.066Z,100154.47
2023-11-12T04:03:20.308Z,100153.25
2023-11-12T04:05:49.680Z,100151.22
2023-11-12T04:08:17.582Z,100148.41
2023-11-12T04:10:45.599Z,100155.25
2023-11-12T04:13:13.658Z,100153.25
2023-11-12T04:15:41.660Z,100153.25
2023-11-12T04:18:12.400Z,100157.28
2023-11-12T04:20:40.352Z,100152.44
2023-11-12T04:23:09.777Z,100156.88
2023-11-12T04:25:37.667Z,100155.66
2023-11-12T04:28:06.271Z,100151.63
2023-11-12T04:30:35.152Z,100151.22
2023-11-12T04:33:03.126Z,100147.22
2023-11-12T04:35:31.591Z,100160.09
2023-11-12T04:37:59.431Z,100161.31
2023-11-12T04:40:29.057Z,100154.47
2023-11-12T04:42:56.854Z,100159.69
2023-11-12T04:45:25.861Z,100159.69
2023-11-12T04:47:53.883Z,100161.31
2023-11-12T04:50:21.716Z,100154.47
2023-11-12T04:52:49.675Z,100159.69
2023-11-12T04:55:17.636Z,100164.13
2023-11-12T04:57:46.859Z,100158.06
2023-11-12T05:00:15.184Z,100160.88
2023-11-12T05:02:43.202Z,100174.97
2023-11-12T05:05:11.870Z,100176.59
2023-11-12T05:07:39.866Z,100170.16
2023-11-12T05:10:09.538Z,100170.97
2023-11-12T05:12:37.538Z,100172.97
2023-11-12T05:15:08.001Z,100167.31
2023-11-12T05:17:37.303Z,100174.97
2023-11-12T05:20:06.402Z,100179.81
2023-11-12T05:22:34.217Z,100181.00
2023-11-12T05:25:02.183Z,100182.19
2023-11-12T05:27:30.071Z,100196.69
2023-11-12T05:29:58.586Z,100192.66
2023-11-12T05:32:27.813Z,100185.44
2023-11-12T05:34:55.677Z,100190.25
2023-11-12T05:37:23.499Z,100187.84
2023-11-12T05:39:51.366Z,100197.09
2023-11-12T05:42:19.335Z,100191.03
2023-11-12T05:44:47.377Z,100189.44
2023-11-12T05:47:15.417Z,100193.47
2023-11-12T05:49:45.045Z,100200.31
2023-11-12T05:52:12.900Z,100195.06
2023-11-12T05:54:41.005Z,100205.94
2023-11-12T05:57:09.104Z,100202.31
2023-11-12T05:59:36.949Z,100202.31
2023-11-12T06:02:04.951Z,100209.53
2023-11-12T06:04:32.843Z,100201.09
2023-11-12T06:07:02.348Z,100205.13
2023-11-12T06:09:30.421Z,100196.66
2023-11-12T06:11:58.585Z,100206.34
2023-11-12T06:14:26.445Z,100206.72
2023-11-12T06:16:54.333Z,100211.97
2023-11-12T06:19:22.299Z,100212.34
2023-11-12T06:21:50.240Z,100231.69
2023-11-12T06:24:19.623Z,100231.69
2023-11-12T06:26:47.598Z,100231.28
2023-11-12T06:29:15.570Z,100235.28
2023-11-12T06:31:43.470Z,100234.50
2023-11-12T06:34:11.552Z,100240.53
2023-11-12T06:36:39.506Z,100240.13
2023-11-12T06:39:07.434Z,100251.38
2023-11-12T06:41:36.656Z,100246.59
2023-11-12T06:44:04.789Z,100242.56
2023-11-12T06:46:32.677Z,100252.59
2023-11-12T06:49:00.548Z,100248.19
2023-11-12T06:51:28.452Z,100247.38
2023-11-12T06:53:56.298Z,100246.97
2023-11-12T06:56:24.423Z,100247.38
2023-11-12T06:58:54.619Z,100250.59
2023-11-12T07:01:22.615Z,100253.81
2023-11-12T07:03:50.983Z,100246.59
2023-11-12T07:06:18.968Z,100246.59
2023-11-12T07:08:46.883Z,100252.22
2023-11-12T07:11:15.114Z,100265.06
2023-11-12T07:13:43.026Z,100259.44
2023-11-12T07:16:18.208Z,100261.06
2023-11-12T07:18:53.662Z,100261.84
2023-11-12T07:21:26.325Z,100261.06
2023-11-12T07:23:54.388Z,100277.94
2023-11-12T07:26:24.533Z,100272.31
2023-11-12T07:28:52.433Z,100275.13
2023-11-12T07:31:24.561Z,100268.28
2023-11-12T07:33:53.726Z,100274.72
2023-11-12T07:36:22.744Z,100270.31
2023-11-12T07:38:50.795Z,100267.50
2023-11-12T07:41:19.734Z,100270.69
2023-11-12T07:43:47.565Z,100279.56
2023-11-12T07:46:15.620Z,100286.78
2023-11-12T07:48:45.059Z,100280.34
2023-11-12T07:51:13.965Z,100287.22
2023-11-12T07:53:41.836Z,100286.78
2023-11-12T07:56:11.477Z,100281.16
2023-11-12T07:58:39.410Z,100285.19
2023-11-12T08:01:07.389Z,100280.34
2023-11-12T08:03:35.470Z,100277.13
2023-11-12T08:06:04.993Z,100283.97
2023-11-12T08:08:32.947Z,100285.19
2023-11-12T08:11:01.834Z,100282.38
2023-11-12T08:13:29.752Z,100277.94
2023-11-12T08:15:57.689Z,100281.97
2023-11-12T08:18:27.086Z,100281.97
2023-11-12T08:20:56.245Z,100286.81
2023-11-12T08:23:25.601Z,100290.44
2023-11-12T08:25:53.494Z,100290.44
2023-11-12T08:28:23.714Z,100285.19
2023-11-12T08:30:51.961Z,100279.56
2023-11-12T08:33:20.223Z,100285.19
2023-11-12T08:35:48.107Z,100294.84
2023-11-12T08:38:16.264Z,100290.81
2023-11-12T08:40:46.740Z,100297.66
2023-11-12T08:43:16.165Z,100306.13
2023-11-12T08:45:44.189Z,100305.28
2023-11-12T08:48:12.245Z,100304.09
2023-11-12T08:50:41.024Z,100301.69
2023-11-12T08:53:08.928Z,100309.31
2023-11-12T08:55:36.774Z,100304.50
2023-11-12T08:58:05.967Z,100310.13
2023-11-12T09:00:33.929Z,100311.72
2023-11-12T09:03:01.978Z,100308.53
2023-11-12T09:05:32.819Z,100310.91
2023-11-12T09:08:02.273Z,100306.91
2023-11-12T09:10:30.171Z,100298.84
2023-11-12T09:12:58.639Z,100306.91
2023-11-12T09:15:28.090Z,100307.69
2023-11-12T09:17:56.773Z,100309.34
2023-11-12T09:20:24.838Z,100311.72
2023-11-12T09:22:52.798Z,100309.75
2023-11-12T09:25:20.823Z,100312.13
2023-11-12T09:27:48.778Z,100316.56
2023-11-12T09:30:16.816Z,100318.19
2023-11-12T09:32:47.032Z,100320.59
2023-11-12T09:35:16.091Z,100323.41
2023-11-12T09:37:43.973Z,100327.84
2023-11-12T09:40:14.297Z,100321.41
2023-11-12T09:42:44.995Z,100322.63
2023-11-12T09:45:13.450Z,100329.84
2023-11-12T09:47:45.176Z,100320.59
2023-11-12T09:50:14.720Z,100325.44
2023-11-12T09:52:42.841Z,100322.63
2023-11-12T09:55:11.890Z,100336.28
2023-11-12T09:57:40.081Z,100322.19
2023-11-12T10:00:09.070Z,100329.44
2023-11-12T10:02:38.087Z,100323.81
2023-11-12T10:05:11.601Z,100326.63
2023-11-12T10:07:41.110Z,100329.03
2023-11-12T10:10:26.001Z,100329.47
2023-11-12T10:12:54.922Z,100335.06
2023-11-12T10:15:26.352Z,100335.88
2023-11-12T10:17:56.879Z,100336.69
2023-11-12T10:20:27.398Z,100337.50
2023-11-12T10:22:57.486Z,100328.66
2023-11-12T10:25:38.412Z,100328.66
2023-11-12T10:28:08.222Z,100338.31
2023-11-12T10:30:36.368Z,100333.88
2023-11-12T10:33:16.706Z,100327.03
2023-11-12T10:35:44.521Z,100328.66
2023-11-12T10:38:16.355Z,100332.66
2023-11-12T10:40:59.391Z,100330.25
2023-11-12T10:43:28.865Z,100328.66
2023-11-12T10:45:59.901Z,100327.84
2023-11-12T10:48:31.584Z,100339.91
2023-11-12T10:51:01.021Z,100345.53
2023-11-12T10:53:32.521Z,100331.88
2023-11-12T10:56:01.977Z,100341.13
2023-11-12T10:58:30.957Z,100339.91
2023-11-12T11:01:00.577Z,100334.28
2023-11-12T11:03:29.917Z,100330.25
2023-11-12T11:06:00.237Z,100330.25
2023-11-12T11:08:29.656Z,100340.72
2023-11-12T11:11:00.217Z,100335.06
2023-11-12T11:13:28.534Z,100339.91
2023-11-12T11:15:57.469Z,100338.31
2023-11-12T11:18:46.615Z,100337.09
2023-11-12T11:21:16.540Z,100342.34
2023-11-12T11:23:46.177Z,100340.69
2023-11-12T11:26:29.057Z,100339.91
2023-11-12T11:29:16.699Z,100333.88
2023-11-12T11:32:19.360Z,100328.25
2023-11-12T11:34:49.418Z,100335.50
2023-11-12T11:37:19.257Z,100342.34
2023-11-12T11:39:47.279Z,100339.91
2023-11-12T11:42:21.075Z,100335.88
2023-11-12T11:44:50.921Z,100342.34
2023-11-12T11:47:20.492Z,100341.13
2023-11-12T11:49:49.009Z,100341.50
2023-11-12T11:52:21.728Z,100339.53
2023-11-12T11:55:09.542Z,100332.66
2023-11-12T11:57:47.150Z,100340.69
2023-11-12T12:00:16.901Z,100344.72
2023-11-12T12:02:45.814Z,100346.34
2023-11-12T12:05:15.625Z,100335.06
2023-11-12T12:07:46.459Z,100346.34
2023-11-12T12:10:28.240Z,100353.59
2023-11-12T12:12:57.918Z,100350.78
2023-11-12T12:15:26.310Z,100340.69
2023-11-12T12:17:54.488Z,100344.75
2023-11-12T12:20:22.301Z,100341.50
2023-11-12T12:22:50.598Z,100342.34
2023-11-12T12:25:18.905Z,100348.78
2023-11-12T12:27:52.855Z,100346.75
2023-11-12T12:30:22.955Z,100347.13
2023-11-12T12:32:50.856Z,100354.78
2023-11-12T12:35:23.692Z,100354.41
2023-11-12T12:37:51.607Z,100351.19
2023-11-12T12:40:29.333Z,100351.19
2023-11-12T12:42:58.522Z,100346.34
2023-11-12T12:45:27.983Z,100354.78
2023-11-12T12:47:57.067Z,100356.00
2023-11-12T12:50:27.573Z,100356.00
2023-11-12T12:53:13.858Z,100352.78
2023-11-12T12:55:42.333Z,100354.41
2023-11-12T12:58:10.590Z,100358.81
2023-11-12T13:00:40.351Z,100365.66
2023-11-12T13:03:22.345Z,100357.63
2023-11-12T13:05:52.038Z,100353.19
2023-11-12T13:08:20.794Z,100351.97
2023-11-12T13:10:50.349Z,100356.00
2023-11-12T13:13:18.912Z,100357.22
2023-11-12T13:15:48.966Z,100354.41
2023-11-12T13:18:16.994Z,100355.59
2023-11-12T13:20:45.994Z,100356.00
2023-11-12T13:23:15.013Z,100362.44
2023-11-12T13:25:43.406Z,100358.81
2023-11-12T13:28:13.272Z,100361.63
2023-11-12T13:30:42.490Z,100356.41
2023-11-12T13:33:12.007Z,100358.41
2023-11-12T13:35:40.328Z,100358.41
2023-11-12T13:38:11.138Z,100360.41
2023-11-12T13:40:40.966Z,100364.06
2023-11-12T13:43:09.362Z,100365.66
2023-11-12T13:45:39.258Z,100358.41
2023-11-12T13:48:09.934Z,100370.50
2023-11-12T13:50:40.848Z,100366.88
2023-11-12T13:53:11.114Z,100376.53
2023-11-12T13:55:42.492Z,100374.53
2023-11-12T13:58:14.718Z,100379.34
2023-11-12T14:00:43.343Z,100384.97
2023-11-12T14:03:12.107Z,100382.56
2023-11-12T14:05:44.406Z,100380.53
2023-11-12T14:08:13.526Z,100373.72
2023-11-12T14:10:41.514Z,100379.34
2023-11-12T14:13:10.927Z,100367.66
2023-11-12T14:15:40.266Z,100373.72
2023-11-12T14:18:08.905Z,100375.72
2023-11-12T14:20:36.834Z,100379.34
2023-11-12T14:23:07.771Z,100377.72
2023-11-12T14:25:35.856Z,100373.72
2023-11-12T14:28:04.842Z,100370.91
2023-11-12T14:30:38.222Z,100380.16
2023-11-12T14:33:07.722Z,100381.38
2023-11-12T14:35:35.858Z,100382.56
2023-11-12T14:38:04.132Z,100377.72
2023-11-12T14:40:33.528Z,100382.53
2023-11-12T14:43:02.061Z,100384.97
2023-11-12T14:45:31.377Z,100385.38
2023-11-12T14:48:00.933Z,100393.00
2023-11-12T14:50:30.297Z,100384.97
2023-11-12T14:52:59.161Z,100386.97
2023-11-12T14:55:28.345Z,100385.78
2023-11-12T14:57:59.391Z,100382.94
2023-11-12T15:00:31.575Z,100383.34
2023-11-12T15:03:00.905Z,100380.94
2023-11-12T15:05:30.181Z,100381.75
2023-11-12T15:07:58.378Z,100387.78
2023-11-12T15:10:26.518Z,100390.63
2023-11-12T15:12:54.548Z,100388.97
2023-11-12T15:15:23.824Z,100398.63
2023-11-12T15:17:53.893Z,100397.84
2023-11-12T15:20:22.337Z,100399.84
2023-11-12T15:22:53.686Z,100395.44
2023-11-12T15:25:21.776Z,100399.47
2023-11-12T15:27:51.193Z,100397.03
2023-11-12T15:30:20.689Z,100401.88
2023-11-12T15:32:50.468Z,100401.06
2023-11-12T15:35:20.345Z,100403.47
2023-11-12T15:37:48.436Z,100410.72
2023-11-12T15:40:19.727Z,100407.50
2023-11-12T15:42:49.440Z,100412.31
2023-11-12T15:45:18.343Z,100410.31
2023-11-12T15:47:47.695Z,100415.94
2023-11-12T15:50:18.747Z,100407.50
2023-11-12T15:52:47.364Z,100417.13
2023-11-12T15:55:16.516Z,100419.56
2023-11-12T15:57:45.919Z,100423.97
2023-11-12T16:00:15.878Z,100420.78
2023-11-12T16:02:44.410Z,100421.16
2023-11-12T16:05:12.466Z,100425.19
2023-11-12T16:07:41.900Z,100432.44
2023-11-12T16:10:12.147Z,100439.66
2023-11-12T16:12:40.657Z,100441.69
2023-11-12T16:15:13.626Z,100439.66
2023-11-12T16:17:43.479Z,100442.09
2023-11-12T16:20:13.914Z,100434.84
2023-11-12T16:22:46.597Z,100442.09
2023-11-12T16:25:14.881Z,100448.94
2023-11-12T16:27:42.967Z,100455.78
2023-11-12T16:30:13.174Z,100454.56
2023-11-12T16:32:41.634Z,100452.13
2023-11-12T16:35:12.388Z,100459.78
2023-11-12T16:37:48.222Z,100456.16
2023-11-12T16:40:19.618Z,100458.19
2023-11-12T16:42:49.790Z,100458.16
2023-11-12T16:45:18.141Z,100467.84
2023-11-12T16:47:46.738Z,100457.38
2023-11-12T16:50:17.353Z,100454.97
2023-11-12T16:52:45.247Z,100458.97
2023-11-12T16:55:13.324Z,100459.78
2023-11-12T16:57:44.275Z,100461.38
2023-11-12T17:00:13.818Z,100463.84
2023-11-12T17:02:42.336Z,100466.22
2023-11-12T17:05:10.736Z,100460.59
2023-11-12T17:07:38.863Z,100467.81
2023-11-12T17:10:07.160Z,100462.59
2023-11-12T17:12:35.025Z,100465.00
2023-11-12T17:15:05.192Z,100469.84
2023-11-12T17:17:33.249Z,100462.19
2023-11-12T17:20:01.897Z,100464.22
2023-11-12T17:22:30.616Z,100481.50
2023-11-12T17:25:01.478Z,100475.88
2023-11-12T17:27:31.521Z,100463.41
2023-11-12T17:30:00.410Z,100465.00
2023-11-12T17:32:29.898Z,100477.47
2023-11-12T17:34:58.071Z,100476.28
2023-11-12T17:37:26.139Z,100468.63
2023-11-12T17:39:54.198Z,100469.03
2023-11-12T17:42:23.790Z,100466.22
2023-11-12T17:44:51.644Z,100476.66
2023-11-12T17:47:19.507Z,100479.91
2023-11-12T17:49:56.357Z,100467.03
2023-11-12T17:52:25.238Z,100478.69
2023-11-12T17:54:53.137Z,100475.88
2023-11-12T17:57:22.768Z,100477.91
2023-11-12T17:59:50.676Z,100474.28
2023-11-12T18:02:18.573Z,100487.16
2023-11-12T18:04:47.092Z,100481.50
2023-11-12T18:07:16.511Z,100489.56
2023-11-12T18:09:47.561Z,100488.34
2023-11-12T18:12:15.496Z,100490.75
2023-11-12T18:14:43.341Z,100487.16
2023-11-12T18:17:12.984Z,100494.00
2023-11-12T18:19:41.497Z,100496.81
2023-11-12T18:22:10.784Z,100504.03
2023-11-12T18:24:40.196Z,100495.19
2023-11-12T18:27:08.348Z,100503.66
2023-11-12T18:29:36.748Z,100498.00
2023-11-12T18:32:05.690Z,100497.59
2023-11-12T18:34:34.777Z,100501.63
2023-11-12T18:37:02.708Z,100502.44
2023-11-12T18:39:31.794Z,100500.81
2023-11-12T18:42:01.260Z,100494.38
2023-11-12T18:44:29.131Z,100502.84
2023-11-12T18:46:57.011Z,100502.44
2023-11-12T18:49:25.532Z,100501.22
2023-11-12T18:51:53.490Z,100498.41
2023-11-12T18:54:21.359Z,100500.00
2023-11-12T18:56:49.216Z,100503.63
2023-11-12T18:59:18.450Z,100495.59
2023-11-12T19:01:46.503Z,100495.97
2023-11-12T19:04:16.604Z,100495.97
2023-11-12T19:06:47.956Z,100501.63
2023-11-12T19:09:17.172Z,100500.00
2023-11-12T19:11:45.134Z,100508.88
2023-11-12T19:14:16.577Z,100504.88
2023-11-12T19:16:47.463Z,100507.25
2023-11-12T19:19:15.440Z,100506.44
2023-11-12T19:21:43.441Z,100509.66
2023-11-12T19:24:13.987Z,100520.53
2023-11-12T19:26:41.824Z,100520.53
2023-11-12T19:29:09.745Z,100518.13
2023-11-12T19:31:39.045Z,100527.38
2023-11-12T19:34:09.964Z,100513.72
2023-11-12T19:36:40.552Z,100520.97
2023-11-12T19:39:13.826Z,100518.13
2023-11-12T19:41:43.200Z,100514.53
2023-11-12T19:44:11.075Z,100520.13
2023-11-12T19:46:42.366Z,100513.69
2023-11-12T19:49:11.650Z,100513.69
2023-11-12T19:51:40.236Z,100516.50
2023-11-12T19:54:08.433Z,100516.91
2023-11-12T19:56:40.652Z,100522.53
2023-11-12T19:59:08.658Z,100521.75
2023-11-12T20:01:36.716Z,100515.31
2023-11-12T20:04:05.805Z,100524.97
2023-11-12T20:06:36.432Z,100514.50
2023-11-12T20:09:04.709Z,100528.16
2023-11-12T20:11:33.035Z,100517.72
2023-11-12T20:14:04.565Z,100523.34
2023-11-12T20:16:34.903Z,100524.56
2023-11-12T20:19:03.840Z,100527.38
2023-11-12T20:21:31.866Z,100527.78
2023-11-12T20:24:01.431Z,100539.44
2023-11-12T20:26:29.446Z,100536.22
2023-11-12T20:28:57.678Z,100531.41
2023-11-12T20:31:26.951Z,100541.06
2023-11-12T20:33:56.467Z,100538.63
2023-11-12T20:36:24.534Z,100540.25
2023-11-12T20:38:52.479Z,100545.88
2023-11-12T20:41:21.938Z,100545.47
2023-11-12T20:43:49.933Z,100540.66
2023-11-12T20:46:19.884Z,100546.66
2023-11-12T20:48:47.911Z,100551.50
2023-11-12T20:51:16.021Z,100549.06
2023-11-12T20:53:43.913Z,100554.69
2023-11-12T20:56:14.481Z,100557.16
2023-11-12T20:58:43.829Z,100561.56
2023-11-12T21:01:11.719Z,100566.00
2023-11-12T21:03:39.834Z,100563.97
2023-11-12T21:06:08.850Z,100568.41
2023-11-12T21:08:38.142Z,100565.16
2023-11-12T21:11:08.327Z,100573.63
2023-11-12T21:13:36.221Z,100572.41
2023-11-12T21:16:05.939Z,100571.19
2023-11-12T21:18:33.853Z,100566.78
2023-11-12T21:21:02.153Z,100571.59
2023-11-12T21:23:30.069Z,100574.78
2023-11-12T21:25:57.892Z,100574.00
2023-11-12T21:28:25.775Z,100575.63
2023-11-12T21:30:53.720Z,100571.59
2023-11-12T21:33:23.179Z,100570.75
2023-11-12T21:35:54.950Z,100570.00
2023-11-12T21:38:23.304Z,100576.38
2023-11-12T21:40:51.384Z,100573.19
2023-11-12T21:43:19.324Z,100574.00
2023-11-12T21:45:50.021Z,100575.63
2023-11-12T21:48:20.936Z,100575.97
2023-11-12T21:50:51.653Z,100578.03
2023-11-12T21:53:23.240Z,100572.75
2023-11-12T21:55:51.466Z,100575.63
2023-11-12T21:58:19.514Z,100576.44
2023-11-12T22:00:47.410Z,100579.63
2023-11-12T22:03:16.282Z,100574.00
2023-11-12T22:05:44.712Z,100569.13
2023-11-12T22:08:15.437Z,100567.53
2023-11-12T22:10:43.429Z,100574.78
2023-11-12T22:13:11.374Z,100570.75
2023-11-12T22:15:39.286Z,100572.38
2023-11-12T22:18:07.179Z,100585.25
2023-11-12T22:20:39.018Z,100588.47
2023-11-12T22:23:07.350Z,100585.22
2023-11-12T22:25:36.607Z,100593.28
2023-11-12T22:28:04.583Z,100583.66
2023-11-12T22:30:32.668Z,100587.63
2023-11-12T22:33:00.966Z,100586.91
2023-11-12T22:35:29.085Z,100593.31
2023-11-12T22:37:57.177Z,100590.88
2023-11-12T22:40:25.836Z,100585.25
2023-11-12T22:42:55.213Z,100590.09
2023-11-12T22:45:23.899Z,100592.09
2023-11-12T22:47:52.032Z,100602.16
2023-11-12T22:50:22.534Z,100604.53
2023-11-12T22:52:50.698Z,100604.53
2023-11-12T22:55:19.039Z,100608.59
2023-11-12T22:57:47.250Z,100600.97
2023-11-12T23:02:57.000Z,100605.41
2023-11-12T23:05:25.093Z,100606.16
2023-11-12T23:07:52.978Z,100610.16
2023-11-12T23:10:21.004Z,100605.38
2023-11-12T23:12:49.577Z,100607.78
2023-11-12T23:15:18.857Z,100607.00
2023-11-12T23:17:46.882Z,100608.63
2023-11-12T23:20:14.787Z,100611.03
2023-11-12T23:22:43.449Z,100615.06
2023-11-12T23:25:12.453Z,100612.25
2023-11-12T23:27:40.434Z,100612.63
2023-11-12T23:30:09.679Z,100613.41
2023-11-12T23:32:39.912Z,100603.78
2023-11-12T23:35:08.150Z,100609.41
2023-11-12T23:37:36.374Z,100612.63
2023-11-12T23:40:05.795Z,100609.41
2023-11-12T23:42:34.193Z,100614.25
2023-11-12T23:45:02.078Z,100604.59
2023-11-12T23:47:30.186Z,100619.88
2023-11-12T23:49:59.459Z,100612.22
2023-11-12T23:52:27.475Z,100612.63
2023-11-12T23:54:55.710Z,100624.28
2023-11-12T23:57:23.536Z,100631.53
2023-11-12T23:59:51.417Z,100632.38
